Currently 69°F in Riverside (Presidential Park), California, USA
69°F
90°F / 61°F
4 mph W
0.00"
Thursday, June 21, 2018 10:21 PM PDT

Riverside (Presidential Park), California Weather Summary
Last 36 Hours

Temperature Winds Hourly Humidity Dewpoint
Time Report Norm Report Norm Max Gusts Precip. Rpt. Norm Rpt. Norm Pressure
1Thu 10:21 PM  69.3°F  72°F  4 mph W  3 mph  5 mph  0.00"  70%  56%  59°F  55°F  29.92"
Thu 10:00 PM  70.0°F  73°F  4 mph SW  3 mph  6 mph  0.00"  69%  54%  59°F  55°F  29.90"
Thu 09:00 PM  72.3°F  75°F  3 mph W  4 mph  10 mph  0.00"  63%  49%  58°F  54°F  29.89"
Thu 08:00 PM  77.7°F  78°F  4 mph SW  5 mph  11 mph  0.00"  54%  43%  59°F  53°F  29.88"
Thu 07:00 PM  82.5°F  82°F  3 mph W  7 mph  12 mph  0.00"  45%  37%  58°F  52°F  29.86"
Thu 06:00 PM  84.6°F  84°F  6 mph W  8 mph  13 mph  0.00"  41%  33%  58°F  51°F  29.85"
Thu 05:00 PM  87.1°F  86°F  8 mph SW  9 mph  14 mph  0.00"  35%  31%  55°F  51°F  29.85"
Thu 04:00 PM  88.6°F  88°F  4 mph W  8 mph  14 mph  0.00"  34%  29%  56°F  51°F  29.86"
2Thu 03:40 PM  89.7°F  88°F  5 mph W  9 mph  13 mph  ----  33%  29%  56°F  51°F  29.86"
Thu 03:00 PM  87.3°F  88°F  5 mph W  8 mph  13 mph  0.00"  38%  29%  57°F  51°F  29.87"
Thu 02:00 PM  85.9°F  88°F  5 mph SW  7 mph  10 mph  0.00"  41%  30%  59°F  52°F  29.89"
Thu 01:00 PM  82.3°F  86°F  4 mph W  6 mph  10 mph  0.00"  47%  33%  59°F  53°F  29.91"
Thu 12:00 PM  79.1°F  84°F  4 mph W  4 mph  9 mph  0.00"  55%  37%  61°F  54°F  29.92"
Thu 11:00 AM  73.7°F  80°F  4 mph NW  3 mph  8 mph  0.00"  64%  44%  61°F  55°F  29.93"
Thu 10:00 AM  67.9°F  76°F  2 mph SW  2 mph  7 mph  0.00"  77%  53%  60°F  57°F  29.93"
Thu 09:00 AM  64.0°F  71°F  3 mph NW  2 mph  6 mph  0.00"  85%  62%  59°F  57°F  29.95"
Thu 08:00 AM  62.5°F  67°F  2 mph W  1 mph  6 mph  0.00"  88%  70%  59°F  57°F  29.95"
Thu 07:00 AM  62.2°F  63°F  2 mph W  1 mph  6 mph  0.00"  87%  77%  58°F  55°F  29.93"
Thu 06:00 AM  62.0°F  62°F  3 mph W  1 mph  3 mph  0.00"  87%  77%  58°F  54°F  29.92"
Thu 05:00 AM  61.6°F  63°F  calm  1 mph  3 mph  0.00"  85%  76%  57°F  55°F  29.91"
3Thu 04:41 AM  61.4°F  63°F  calm  1 mph  none  ----  85%  75%  57°F  55°F  29.91"
Thu 04:00 AM  62.1°F  63°F  1 mph NW  1 mph  2 mph  0.00"  84%  74%  57°F  55°F  29.91"
Thu 03:00 AM  62.9°F  64°F  calm  1 mph  4 mph  0.00"  84%  72%  58°F  55°F  29.91"
Thu 02:00 AM  63.4°F  65°F  calm  1 mph  4 mph  0.00"  83%  70%  58°F  55°F  29.92"
Thu 01:00 AM  64.1°F  67°F  1 mph SW  1 mph  5 mph  0.00"  81%  67%  58°F  55°F  29.93"
Thu 12:00 AM  65.6°F  68°F  2 mph W  2 mph  6 mph  0.00"  78%  64%  58°F  55°F  29.93"
Wed 11:00 PM  66.3°F  70°F  3 mph SW  2 mph  6 mph  0.00"  74%  61%  57°F  55°F  29.93"
Wed 10:00 PM  68.2°F  72°F  2 mph SW  3 mph  7 mph  0.00"  70%  56%  58°F  55°F  29.93"
Wed 09:00 PM  71.1°F  75°F  5 mph NW  4 mph  8 mph  0.00"  64%  50%  58°F  54°F  29.92"
Wed 08:00 PM  75.7°F  78°F  5 mph W  5 mph  12 mph  0.00"  54%  44%  57°F  53°F  29.89"
Wed 07:00 PM  80.7°F  81°F  6 mph W  7 mph  13 mph  0.00"  45%  38%  57°F  52°F  29.86"
Wed 06:00 PM  84.8°F  84°F  7 mph W  8 mph  14 mph  0.00"  38%  34%  56°F  52°F  29.84"
Wed 05:00 PM  87.0°F  85°F  8 mph W  9 mph  14 mph  0.00"  35%  32%  55°F  51°F  29.84"
Wed 04:00 PM  88.0°F  87°F  8 mph W  8 mph  15 mph  0.00"  32%  31%  54°F  51°F  29.84"
Wed 03:00 PM  88.4°F  88°F  6 mph W  8 mph  12 mph  0.00"  35%  30%  57°F  52°F  29.85"
Wed 02:00 PM  86.7°F  87°F  5 mph W  7 mph  13 mph  0.00"  37%  31%  56°F  52°F  29.87"
Wed 01:00 PM  83.7°F  85°F  6 mph W  5 mph  10 mph  0.00"  42%  34%  57°F  53°F  29.88"
Wed 12:00 PM  79.5°F  83°F  6 mph NW  4 mph  9 mph  0.00"  51%  39%  59°F  54°F  29.90"
Wed 11:00 AM  75.2°F  79°F  2 mph S  3 mph  9 mph  0.00"  58%  45%  59°F  55°F  29.91"

  1. Current weather data. No green row appears if the current weather data is also the high or low for the current day.
  2. High temperature for the current day.
  3. Low temperature for the current day.

The Riverside (Presidential Park), California weather pages are a service of WeatherCurrents.
Copyright ©Thu Jun 21 22:22:27 PDT 2018  WeatherCurrents. All rights reserved. - Submit questions and comments - Privacy Policy

This page automatically refreshes every 10 minutes.